AFL1405 UNOO-UUEE
Flight info
| Callsign | AFL1405 |
|---|---|
| Flight time | 3h 14m |
| Altitude | 36000 |
| Route | BUNET6D BUNET B236 LUKAS M864 AGNOK/K0843F280 M864 KERUN P164 IDMOR M864 EKSER/K0852F360 M864 IBROT T535 URIDU L158 DIMGI DIMGI3F |
| Aircraft | A320/M-SDE3FGHIRWY/LB1 |
Departure
| Time | 2026-04-26 11:26 |
|---|---|
| Airport | Omsk Central Airport (UNOO) |
Arrival
| Time | 2026-04-26 14:41 |
|---|---|
| Airport | Sheremetyevo International Airport (UUEE) |
| Time | Latitude | Longitude | Altitude | Speed | Heading |
|---|---|---|---|---|---|
| 2026-04-26 11:05 | 54.96119 | 73.31727 | 310 ft | 0 kts | 136° |
| 2026-04-26 11:21 | 54.96103 | 73.31776 | 310 ft | 6 kts | 96° |
| 2026-04-26 11:21 | 54.96120 | 73.31823 | 311 ft | 3 kts | 46° |
| 2026-04-26 11:22 | 54.96140 | 73.31858 | 308 ft | 7 kts | 45° |
| 2026-04-26 11:22 | 54.96186 | 73.31942 | 310 ft | 10 kts | 46° |
| 2026-04-26 11:22 | 54.96229 | 73.32018 | 307 ft | 9 kts | 46° |
| 2026-04-26 11:22 | 54.96292 | 73.32116 | 307 ft | 15 kts | 38° |
| 2026-04-26 11:23 | 54.96362 | 73.32206 | 308 ft | 10 kts | 36° |
| 2026-04-26 11:23 | 54.96419 | 73.32237 | 306 ft | 8 kts | 356° |
| 2026-04-26 11:23 | 54.96465 | 73.32272 | 307 ft | 7 kts | 53° |
| 2026-04-26 11:23 | 54.96480 | 73.32354 | 306 ft | 8 kts | 77° |
| 2026-04-26 11:24 | 54.96503 | 73.32528 | 305 ft | 20 kts | 77° |
| 2026-04-26 11:24 | 54.96533 | 73.32749 | 304 ft | 18 kts | 77° |
| 2026-04-26 11:24 | 54.96559 | 73.32950 | 304 ft | 16 kts | 77° |
| 2026-04-26 11:24 | 54.96625 | 73.33048 | 303 ft | 13 kts | 349° |
| 2026-04-26 11:25 | 54.96718 | 73.33009 | 305 ft | 14 kts | 346° |
| 2026-04-26 11:25 | 54.96821 | 73.32968 | 305 ft | 16 kts | 346° |
| 2026-04-26 11:25 | 54.96928 | 73.32921 | 302 ft | 11 kts | 346° |
| 2026-04-26 11:25 | 54.96954 | 73.32820 | 302 ft | 10 kts | 256° |
| 2026-04-26 11:26 | 54.96927 | 73.32630 | 306 ft | 39 kts | 257° |
| 2026-04-26 11:26 | 54.96811 | 73.31738 | 306 ft | 108 kts | 257° |
| 2026-04-26 11:26 | 54.96600 | 73.30155 | 383 ft | 153 kts | 256° |
| 2026-04-26 11:26 | 54.96334 | 73.28343 | 1017 ft | 155 kts | 258° |
| 2026-04-26 11:27 | 54.96093 | 73.26529 | 1753 ft | 154 kts | 260° |
| 2026-04-26 11:27 | 54.95844 | 73.24611 | 2082 ft | 173 kts | 261° |
| 2026-04-26 11:27 | 54.95564 | 73.22441 | 2313 ft | 195 kts | 261° |
| 2026-04-26 11:27 | 54.95248 | 73.20022 | 2714 ft | 216 kts | 261° |
| 2026-04-26 11:28 | 54.94893 | 73.17339 | 3289 ft | 237 kts | 261° |
| 2026-04-26 11:28 | 54.94516 | 73.14549 | 4172 ft | 242 kts | 260° |
| 2026-04-26 11:28 | 54.94124 | 73.11685 | 5030 ft | 245 kts | 260° |
| 2026-04-26 11:28 | 54.93726 | 73.08788 | 5882 ft | 248 kts | 261° |
| 2026-04-26 11:29 | 54.93324 | 73.05845 | 6678 ft | 252 kts | 260° |
| 2026-04-26 11:29 | 54.93208 | 73.02827 | 7420 ft | 253 kts | 284° |
| 2026-04-26 11:29 | 54.94062 | 73.00138 | 8141 ft | 261 kts | 310° |
| 2026-04-26 11:29 | 54.95437 | 72.98003 | 8855 ft | 270 kts | 320° |
| 2026-04-26 11:30 | 54.96980 | 72.96076 | 9556 ft | 277 kts | 322° |
| 2026-04-26 11:30 | 54.98041 | 72.94797 | 9971 ft | 283 kts | 321° |
| 2026-04-26 11:30 | 55.00292 | 72.91981 | 10261 ft | 313 kts | 320° |
| 2026-04-26 11:30 | 55.02089 | 72.89590 | 10418 ft | 336 kts | 318° |
| 2026-04-26 11:31 | 55.03979 | 72.86968 | 10544 ft | 358 kts | 317° |
| 2026-04-26 11:31 | 55.05959 | 72.84140 | 10750 ft | 376 kts | 317° |
| 2026-04-26 11:31 | 55.07990 | 72.81188 | 11264 ft | 383 kts | 316° |
| 2026-04-26 11:31 | 55.10052 | 72.78165 | 11875 ft | 389 kts | 316° |
| 2026-04-26 11:32 | 55.12128 | 72.75108 | 12483 ft | 394 kts | 316° |
| 2026-04-26 11:32 | 55.14224 | 72.71966 | 12993 ft | 398 kts | 312° |
| 2026-04-26 11:32 | 55.16103 | 72.68390 | 13484 ft | 399 kts | 303° |
| 2026-04-26 11:32 | 55.17646 | 72.64349 | 13950 ft | 399 kts | 294° |
| 2026-04-26 11:33 | 55.18993 | 72.60095 | 14434 ft | 402 kts | 294° |
| 2026-04-26 11:33 | 55.20355 | 72.55800 | 14939 ft | 405 kts | 294° |
| 2026-04-26 11:33 | 55.21730 | 72.51466 | 15439 ft | 408 kts | 293° |
| 2026-04-26 11:33 | 55.23110 | 72.47110 | 15909 ft | 411 kts | 293° |
| 2026-04-26 11:34 | 55.24499 | 72.42710 | 16384 ft | 414 kts | 292° |
| 2026-04-26 11:34 | 55.25880 | 72.38326 | 16853 ft | 417 kts | 292° |
| 2026-04-26 11:34 | 55.27286 | 72.33853 | 17320 ft | 420 kts | 292° |
| 2026-04-26 11:34 | 55.28698 | 72.29351 | 17777 ft | 423 kts | 292° |
| 2026-04-26 11:35 | 55.30119 | 72.24810 | 18206 ft | 426 kts | 292° |
| 2026-04-26 11:35 | 55.31550 | 72.20235 | 18567 ft | 430 kts | 291° |
| 2026-04-26 11:35 | 55.32994 | 72.15614 | 18915 ft | 434 kts | 291° |
| 2026-04-26 11:35 | 55.33956 | 72.12531 | 19148 ft | 436 kts | 291° |
| 2026-04-26 11:36 | 55.35918 | 72.06231 | 19621 ft | 442 kts | 291° |
| 2026-04-26 11:36 | 55.37398 | 72.01472 | 19974 ft | 446 kts | 291° |
| 2026-04-26 11:36 | 55.38887 | 71.96679 | 20413 ft | 446 kts | 292° |
| 2026-04-26 11:36 | 55.40376 | 71.91890 | 20840 ft | 447 kts | 292° |
| 2026-04-26 11:37 | 55.41362 | 71.88710 | 21071 ft | 448 kts | 292° |
| 2026-04-26 11:37 | 55.42854 | 71.83877 | 21407 ft | 451 kts | 291° |
| 2026-04-26 11:37 | 55.44356 | 71.78999 | 21724 ft | 454 kts | 291° |
| 2026-04-26 11:37 | 55.45860 | 71.74100 | 22047 ft | 457 kts | 291° |
| 2026-04-26 11:38 | 55.47375 | 71.69150 | 22384 ft | 460 kts | 291° |
| 2026-04-26 11:38 | 55.48893 | 71.64173 | 22684 ft | 462 kts | 291° |
| 2026-04-26 11:38 | 55.50418 | 71.59160 | 22986 ft | 465 kts | 291° |
| 2026-04-26 11:38 | 55.51951 | 71.54115 | 23261 ft | 468 kts | 290° |
| 2026-04-26 11:39 | 55.53489 | 71.49046 | 23507 ft | 470 kts | 290° |
| 2026-04-26 11:39 | 55.55035 | 71.43946 | 23753 ft | 472 kts | 290° |
| 2026-04-26 11:39 | 55.56589 | 71.38817 | 24004 ft | 474 kts | 290° |
| 2026-04-26 11:39 | 55.58148 | 71.33659 | 24242 ft | 476 kts | 290° |
| 2026-04-26 11:40 | 55.59705 | 71.28484 | 24487 ft | 477 kts | 290° |
| 2026-04-26 11:40 | 55.61263 | 71.23290 | 24798 ft | 477 kts | 291° |
| 2026-04-26 11:40 | 55.62808 | 71.18143 | 25379 ft | 470 kts | 291° |
| 2026-04-26 11:40 | 55.64330 | 71.13049 | 25834 ft | 467 kts | 291° |
| 2026-04-26 11:41 | 55.65837 | 71.07967 | 26219 ft | 466 kts | 291° |
| 2026-04-26 11:42 | 55.76279 | 70.72467 | 28612 ft | 464 kts | 290° |
| 2026-04-26 11:43 | 55.77765 | 70.67368 | 28962 ft | 464 kts | 290° |
| 2026-04-26 11:43 | 55.79242 | 70.62285 | 29309 ft | 464 kts | 290° |
| 2026-04-26 11:43 | 55.80723 | 70.57179 | 29665 ft | 464 kts | 290° |
| 2026-04-26 11:43 | 55.82201 | 70.52081 | 29972 ft | 463 kts | 290° |
| 2026-04-26 11:44 | 55.83677 | 70.46985 | 30374 ft | 461 kts | 292° |
| 2026-04-26 11:44 | 55.85134 | 70.41956 | 30882 ft | 455 kts | 292° |
| 2026-04-26 11:44 | 55.86573 | 70.36970 | 31274 ft | 452 kts | 292° |
| 2026-04-26 11:44 | 55.88002 | 70.31997 | 31582 ft | 451 kts | 292° |
| 2026-04-26 11:45 | 55.89429 | 70.27027 | 31888 ft | 450 kts | 292° |
| 2026-04-26 11:45 | 55.90850 | 70.22062 | 32185 ft | 450 kts | 292° |
| 2026-04-26 11:45 | 55.92267 | 70.17098 | 32477 ft | 449 kts | 292° |
| 2026-04-26 11:45 | 55.93681 | 70.12125 | 32763 ft | 449 kts | 291° |
| 2026-04-26 11:46 | 55.95084 | 70.07168 | 33053 ft | 448 kts | 291° |
| 2026-04-26 11:46 | 55.96488 | 70.02197 | 33337 ft | 448 kts | 291° |
| 2026-04-26 11:46 | 55.97890 | 69.97234 | 33618 ft | 448 kts | 291° |
| 2026-04-26 11:46 | 55.99294 | 69.92261 | 33880 ft | 447 kts | 291° |
| 2026-04-26 11:47 | 56.00692 | 69.87300 | 34146 ft | 447 kts | 291° |
| 2026-04-26 11:47 | 56.02088 | 69.82339 | 34386 ft | 446 kts | 291° |
| 2026-04-26 11:47 | 56.03481 | 69.77381 | 34615 ft | 446 kts | 291° |
| 2026-04-26 11:47 | 56.04855 | 69.72488 | 34833 ft | 446 kts | 291° |
| 2026-04-26 11:48 | 56.06241 | 69.67535 | 35111 ft | 444 kts | 292° |
| 2026-04-26 11:48 | 56.07621 | 69.62592 | 35366 ft | 443 kts | 292° |
| 2026-04-26 11:48 | 56.09027 | 69.57688 | 35579 ft | 443 kts | 294° |
| 2026-04-26 11:48 | 56.10544 | 69.52855 | 35716 ft | 445 kts | 296° |
| 2026-04-26 11:49 | 56.13621 | 69.43133 | 35757 ft | 447 kts | 289° |
| 2026-04-26 11:49 | 56.15267 | 69.32609 | 35754 ft | 440 kts | 277° |
| 2026-04-26 11:50 | 56.16351 | 69.21820 | 35748 ft | 439 kts | 276° |
| 2026-04-26 11:50 | 56.17426 | 69.11002 | 35758 ft | 440 kts | 276° |
| 2026-04-26 11:51 | 56.18524 | 69.00200 | 35777 ft | 440 kts | 277° |
| 2026-04-26 11:51 | 56.19633 | 68.89393 | 35778 ft | 440 kts | 277° |
| 2026-04-26 11:52 | 56.20719 | 68.78588 | 35773 ft | 439 kts | 276° |
| 2026-04-26 11:52 | 56.21794 | 68.67774 | 35775 ft | 439 kts | 276° |
| 2026-04-26 11:53 | 56.22862 | 68.56967 | 35778 ft | 439 kts | 276° |
| 2026-04-26 11:54 | 56.24434 | 68.40808 | 35784 ft | 439 kts | 276° |
| 2026-04-26 11:54 | 56.25474 | 68.29988 | 35799 ft | 439 kts | 276° |
| 2026-04-26 11:55 | 56.26500 | 68.19169 | 35807 ft | 439 kts | 276° |
| 2026-04-26 11:55 | 56.27517 | 68.08341 | 35822 ft | 439 kts | 276° |
| 2026-04-26 11:56 | 56.28524 | 67.97524 | 35811 ft | 438 kts | 276° |
| 2026-04-26 11:56 | 56.29524 | 67.86697 | 35822 ft | 438 kts | 276° |
| 2026-04-26 11:57 | 56.30516 | 67.75855 | 35815 ft | 438 kts | 276° |
| 2026-04-26 11:57 | 56.31493 | 67.65084 | 35821 ft | 438 kts | 276° |
| 2026-04-26 11:58 | 56.32465 | 67.54240 | 35820 ft | 438 kts | 276° |
| 2026-04-26 11:58 | 56.33428 | 67.43397 | 35814 ft | 438 kts | 276° |
| 2026-04-26 11:59 | 56.34384 | 67.32549 | 35811 ft | 438 kts | 276° |
| 2026-04-26 11:59 | 56.35326 | 67.21708 | 35804 ft | 438 kts | 276° |
| 2026-04-26 12:00 | 56.36260 | 67.10855 | 35831 ft | 438 kts | 276° |
| 2026-04-26 12:00 | 56.37181 | 67.00003 | 35824 ft | 438 kts | 275° |
| 2026-04-26 12:01 | 56.38090 | 66.89137 | 35821 ft | 437 kts | 276° |
| 2026-04-26 12:01 | 56.38999 | 66.78284 | 35821 ft | 437 kts | 276° |
| 2026-04-26 12:02 | 56.39890 | 66.67421 | 35816 ft | 437 kts | 275° |
| 2026-04-26 12:02 | 56.40766 | 66.56629 | 35816 ft | 437 kts | 275° |
| 2026-04-26 12:03 | 56.41640 | 66.45785 | 35815 ft | 437 kts | 275° |
| 2026-04-26 12:03 | 56.42510 | 66.34916 | 35814 ft | 437 kts | 275° |
| 2026-04-26 12:04 | 56.43373 | 66.24058 | 35813 ft | 437 kts | 275° |
| 2026-04-26 12:04 | 56.44229 | 66.13188 | 35843 ft | 436 kts | 275° |
| 2026-04-26 12:05 | 56.45067 | 66.02398 | 35829 ft | 436 kts | 275° |
| 2026-04-26 12:05 | 56.45894 | 65.91535 | 35818 ft | 436 kts | 275° |
| 2026-04-26 12:06 | 56.46716 | 65.80648 | 35816 ft | 436 kts | 275° |
| 2026-04-26 12:06 | 56.47525 | 65.69784 | 35817 ft | 436 kts | 275° |
| 2026-04-26 12:07 | 56.48329 | 65.58910 | 35816 ft | 436 kts | 275° |
| 2026-04-26 12:07 | 56.49121 | 65.48015 | 35809 ft | 436 kts | 275° |
| 2026-04-26 12:08 | 56.49897 | 65.37125 | 35807 ft | 436 kts | 275° |
| 2026-04-26 12:08 | 56.50676 | 65.26221 | 35810 ft | 436 kts | 275° |
| 2026-04-26 12:09 | 56.51445 | 65.15316 | 35814 ft | 436 kts | 275° |
| 2026-04-26 12:09 | 56.52204 | 65.04421 | 35832 ft | 436 kts | 275° |
| 2026-04-26 12:10 | 56.52958 | 64.93506 | 35829 ft | 437 kts | 275° |
| 2026-04-26 12:10 | 56.53698 | 64.82594 | 35824 ft | 437 kts | 275° |
| 2026-04-26 12:11 | 56.54419 | 64.71731 | 35818 ft | 437 kts | 275° |
| 2026-04-26 12:11 | 56.55146 | 64.60806 | 35824 ft | 437 kts | 275° |
| 2026-04-26 12:12 | 56.55857 | 64.49875 | 35822 ft | 436 kts | 275° |
| 2026-04-26 12:12 | 56.56556 | 64.38946 | 35823 ft | 436 kts | 274° |
| 2026-04-26 12:13 | 56.57240 | 64.28006 | 35818 ft | 436 kts | 274° |
| 2026-04-26 12:13 | 56.57922 | 64.17076 | 35818 ft | 436 kts | 275° |
| 2026-04-26 12:14 | 56.58600 | 64.06133 | 35825 ft | 436 kts | 274° |
| 2026-04-26 12:14 | 56.59265 | 63.95188 | 35827 ft | 436 kts | 274° |
| 2026-04-26 12:15 | 56.59916 | 63.84244 | 35830 ft | 435 kts | 274° |
| 2026-04-26 12:15 | 56.60550 | 63.73398 | 35829 ft | 435 kts | 274° |
| 2026-04-26 12:16 | 56.61177 | 63.62455 | 35831 ft | 436 kts | 274° |
| 2026-04-26 12:16 | 56.61804 | 63.51512 | 35840 ft | 436 kts | 274° |
| 2026-04-26 12:17 | 56.62431 | 63.40569 | 35841 ft | 435 kts | 274° |
| 2026-04-26 12:17 | 56.63039 | 63.29630 | 35840 ft | 435 kts | 274° |
| 2026-04-26 12:18 | 56.63641 | 63.18702 | 35844 ft | 435 kts | 274° |
| 2026-04-26 12:18 | 56.64238 | 63.07784 | 35843 ft | 435 kts | 274° |
| 2026-04-26 12:19 | 56.64824 | 62.96837 | 35868 ft | 435 kts | 274° |
| 2026-04-26 12:19 | 56.65390 | 62.85959 | 35860 ft | 435 kts | 274° |
| 2026-04-26 12:20 | 56.65944 | 62.75027 | 35859 ft | 434 kts | 274° |
| 2026-04-26 12:20 | 56.66497 | 62.64091 | 35861 ft | 434 kts | 274° |
| 2026-04-26 12:21 | 56.67040 | 62.53165 | 35860 ft | 434 kts | 274° |
| 2026-04-26 12:21 | 56.67571 | 62.42230 | 35868 ft | 434 kts | 274° |
| 2026-04-26 12:22 | 56.68092 | 62.31296 | 35868 ft | 434 kts | 274° |
| 2026-04-26 12:22 | 56.68602 | 62.20352 | 35868 ft | 434 kts | 273° |
| 2026-04-26 12:23 | 56.69100 | 62.09415 | 35869 ft | 434 kts | 274° |
| 2026-04-26 12:23 | 56.69587 | 61.98547 | 35875 ft | 433 kts | 274° |
| 2026-04-26 12:24 | 56.70078 | 61.87618 | 35885 ft | 433 kts | 274° |
| 2026-04-26 12:24 | 56.70477 | 61.78461 | 35879 ft | 433 kts | 273° |
| 2026-04-26 12:25 | 56.71166 | 61.62164 | 35866 ft | 432 kts | 273° |
| 2026-04-26 12:25 | 56.71618 | 61.51251 | 35861 ft | 432 kts | 273° |
| 2026-04-26 12:26 | 56.72057 | 61.40337 | 35853 ft | 432 kts | 273° |
| 2026-04-26 12:26 | 56.72488 | 61.29415 | 35860 ft | 432 kts | 273° |
| 2026-04-26 12:27 | 56.72906 | 61.18496 | 35861 ft | 432 kts | 273° |
| 2026-04-26 12:27 | 56.73316 | 61.07589 | 35861 ft | 432 kts | 273° |
| 2026-04-26 12:28 | 56.73719 | 60.96668 | 35861 ft | 432 kts | 273° |
| 2026-04-26 12:28 | 56.74110 | 60.85766 | 35879 ft | 432 kts | 273° |
| 2026-04-26 12:29 | 56.74560 | 60.74846 | 35872 ft | 433 kts | 275° |
| 2026-04-26 12:30 | 56.75762 | 60.58530 | 35868 ft | 433 kts | 277° |
| 2026-04-26 12:30 | 56.76588 | 60.47704 | 35870 ft | 433 kts | 277° |
| 2026-04-26 12:31 | 56.77707 | 60.31336 | 35874 ft | 433 kts | 276° |
| 2026-04-26 12:31 | 56.78430 | 60.20431 | 35881 ft | 434 kts | 276° |
| 2026-04-26 12:32 | 56.79147 | 60.09494 | 35882 ft | 434 kts | 276° |
| 2026-04-26 12:33 | 56.80141 | 59.93083 | 35903 ft | 434 kts | 276° |
| 2026-04-26 12:33 | 56.80792 | 59.82146 | 35910 ft | 433 kts | 276° |
| 2026-04-26 12:34 | 56.81431 | 59.71287 | 35908 ft | 433 kts | 275° |
| 2026-04-26 12:34 | 56.82061 | 59.60353 | 35920 ft | 433 kts | 275° |
| 2026-04-26 12:35 | 56.82682 | 59.49432 | 35907 ft | 432 kts | 275° |
| 2026-04-26 12:35 | 56.83298 | 59.38504 | 35905 ft | 432 kts | 275° |
| 2026-04-26 12:36 | 56.83900 | 59.27596 | 35901 ft | 432 kts | 275° |
| 2026-04-26 12:36 | 56.84493 | 59.16673 | 35909 ft | 432 kts | 275° |
| 2026-04-26 12:37 | 56.85059 | 59.05764 | 35907 ft | 431 kts | 274° |
| 2026-04-26 12:37 | 56.85373 | 58.94828 | 35923 ft | 431 kts | 271° |
| 2026-04-26 12:38 | 56.85503 | 58.83955 | 35915 ft | 431 kts | 271° |
| 2026-04-26 12:38 | 56.85631 | 58.73010 | 35918 ft | 431 kts | 271° |
| 2026-04-26 12:39 | 56.85803 | 58.62056 | 35916 ft | 431 kts | 272° |
| 2026-04-26 12:39 | 56.85982 | 58.51101 | 35913 ft | 431 kts | 271° |
| 2026-04-26 12:40 | 56.86146 | 58.40154 | 35919 ft | 431 kts | 271° |
| 2026-04-26 12:40 | 56.86298 | 58.29198 | 35920 ft | 431 kts | 271° |
| 2026-04-26 12:41 | 56.86432 | 58.18230 | 35930 ft | 431 kts | 271° |
| 2026-04-26 12:41 | 56.86559 | 58.07262 | 35925 ft | 431 kts | 271° |
| 2026-04-26 12:42 | 56.86683 | 57.96311 | 35944 ft | 431 kts | 271° |
| 2026-04-26 12:42 | 56.86793 | 57.85351 | 35932 ft | 431 kts | 271° |
| 2026-04-26 12:43 | 56.86890 | 57.74470 | 35926 ft | 430 kts | 271° |
| 2026-04-26 12:43 | 56.86979 | 57.63538 | 35927 ft | 430 kts | 271° |
| 2026-04-26 12:44 | 56.87060 | 57.52600 | 35912 ft | 430 kts | 271° |
| 2026-04-26 12:44 | 56.87140 | 57.41684 | 35923 ft | 430 kts | 271° |
| 2026-04-26 12:45 | 56.87207 | 57.30757 | 35914 ft | 430 kts | 271° |
| 2026-04-26 12:45 | 56.87261 | 57.19841 | 35886 ft | 429 kts | 271° |
| 2026-04-26 12:46 | 56.87307 | 57.08930 | 35896 ft | 428 kts | 271° |
| 2026-04-26 12:46 | 56.87345 | 56.98037 | 35907 ft | 428 kts | 270° |
| 2026-04-26 12:47 | 56.87366 | 56.87164 | 35913 ft | 428 kts | 270° |
| 2026-04-26 12:47 | 56.87375 | 56.76338 | 35905 ft | 428 kts | 270° |
| 2026-04-26 12:48 | 56.87381 | 56.65472 | 35905 ft | 427 kts | 270° |
| 2026-04-26 12:48 | 56.87380 | 56.54586 | 35897 ft | 427 kts | 270° |
| 2026-04-26 12:49 | 56.87368 | 56.43742 | 35879 ft | 427 kts | 270° |
| 2026-04-26 12:49 | 56.87443 | 56.32900 | 35880 ft | 426 kts | 271° |
| 2026-04-26 12:50 | 56.87582 | 56.22059 | 35879 ft | 426 kts | 271° |
| 2026-04-26 12:50 | 56.87694 | 56.11233 | 35878 ft | 426 kts | 271° |
| 2026-04-26 12:51 | 56.87776 | 56.00408 | 35870 ft | 425 kts | 271° |
| 2026-04-26 12:51 | 56.87841 | 55.89658 | 35877 ft | 425 kts | 270° |
| 2026-04-26 12:52 | 56.87773 | 55.78829 | 35874 ft | 425 kts | 269° |
| 2026-04-26 12:52 | 56.87593 | 55.68028 | 35883 ft | 425 kts | 269° |
| 2026-04-26 12:53 | 56.87415 | 55.57248 | 35906 ft | 424 kts | 269° |
| 2026-04-26 12:53 | 56.87267 | 55.46482 | 35903 ft | 424 kts | 269° |
| 2026-04-26 12:54 | 56.87110 | 55.35717 | 35896 ft | 424 kts | 269° |
| 2026-04-26 12:54 | 56.86933 | 55.24953 | 35895 ft | 424 kts | 269° |
| 2026-04-26 12:55 | 56.86754 | 55.14186 | 35894 ft | 424 kts | 269° |
| 2026-04-26 12:55 | 56.86567 | 55.03417 | 35897 ft | 423 kts | 269° |
| 2026-04-26 12:56 | 56.86366 | 54.92756 | 35913 ft | 422 kts | 269° |
| 2026-04-26 12:56 | 56.86157 | 54.82049 | 35918 ft | 421 kts | 269° |
| 2026-04-26 12:57 | 56.85941 | 54.71356 | 35934 ft | 420 kts | 268° |
| 2026-04-26 12:57 | 56.85711 | 54.60692 | 35927 ft | 419 kts | 268° |
| 2026-04-26 12:58 | 56.85470 | 54.44727 | 35926 ft | 419 kts | 269° |
| 2026-04-26 12:58 | 56.85348 | 54.34094 | 35910 ft | 418 kts | 269° |
| 2026-04-26 12:59 | 56.85191 | 54.23499 | 35919 ft | 417 kts | 269° |
| 2026-04-26 12:59 | 56.85021 | 54.12927 | 35918 ft | 416 kts | 269° |
| 2026-04-26 13:00 | 56.84822 | 54.02430 | 35917 ft | 415 kts | 268° |
| 2026-04-26 13:00 | 56.84560 | 53.91874 | 35911 ft | 415 kts | 268° |
| 2026-04-26 13:01 | 56.84291 | 53.81333 | 35909 ft | 415 kts | 268° |
| 2026-04-26 13:01 | 56.84032 | 53.70794 | 35888 ft | 415 kts | 268° |
| 2026-04-26 13:02 | 56.83767 | 53.60266 | 35893 ft | 415 kts | 268° |
| 2026-04-26 13:02 | 56.83479 | 53.49739 | 35897 ft | 415 kts | 268° |
| 2026-04-26 13:03 | 56.83266 | 53.39280 | 35896 ft | 414 kts | 270° |
| 2026-04-26 13:03 | 56.83297 | 53.28740 | 35898 ft | 415 kts | 271° |
| 2026-04-26 13:04 | 56.83375 | 53.18196 | 35900 ft | 415 kts | 270° |
| 2026-04-26 13:04 | 56.83388 | 53.07720 | 35895 ft | 415 kts | 270° |
| 2026-04-26 13:05 | 56.83352 | 52.97190 | 35879 ft | 415 kts | 270° |
| 2026-04-26 13:05 | 56.83305 | 52.86661 | 35889 ft | 414 kts | 270° |
| 2026-04-26 13:06 | 56.83242 | 52.76138 | 35890 ft | 414 kts | 269° |
| 2026-04-26 13:06 | 56.83161 | 52.65622 | 35907 ft | 414 kts | 269° |
| 2026-04-26 13:07 | 56.83073 | 52.55098 | 35898 ft | 414 kts | 269° |
| 2026-04-26 13:07 | 56.82980 | 52.44583 | 35894 ft | 414 kts | 269° |
| 2026-04-26 13:08 | 56.82878 | 52.34079 | 35892 ft | 414 kts | 269° |
| 2026-04-26 13:08 | 56.82763 | 52.23579 | 35865 ft | 414 kts | 269° |
| 2026-04-26 13:09 | 56.82690 | 52.13086 | 35869 ft | 413 kts | 270° |
| 2026-04-26 13:09 | 56.82855 | 52.02650 | 35872 ft | 413 kts | 272° |
| 2026-04-26 13:10 | 56.83076 | 51.92156 | 35871 ft | 413 kts | 271° |
| 2026-04-26 13:10 | 56.83246 | 51.81660 | 35873 ft | 413 kts | 271° |
| 2026-04-26 13:11 | 56.83376 | 51.71177 | 35887 ft | 413 kts | 271° |
| 2026-04-26 13:11 | 56.83486 | 51.60688 | 35873 ft | 413 kts | 270° |
| 2026-04-26 13:12 | 56.83546 | 51.51956 | 35864 ft | 413 kts | 269° |
| 2026-04-26 13:12 | 56.83266 | 51.41475 | 35862 ft | 413 kts | 265° |
| 2026-04-26 13:13 | 56.82781 | 51.31036 | 35854 ft | 412 kts | 265° |
| 2026-04-26 13:13 | 56.82304 | 51.20595 | 35853 ft | 413 kts | 265° |
| 2026-04-26 13:14 | 56.81877 | 51.10144 | 35845 ft | 413 kts | 266° |
| 2026-04-26 13:14 | 56.81464 | 50.99686 | 35843 ft | 413 kts | 266° |
| 2026-04-26 13:15 | 56.81049 | 50.89238 | 35845 ft | 413 kts | 266° |
| 2026-04-26 13:15 | 56.80613 | 50.78828 | 35826 ft | 413 kts | 265° |
| 2026-04-26 13:16 | 56.80157 | 50.68388 | 35844 ft | 413 kts | 265° |
| 2026-04-26 13:16 | 56.79702 | 50.57943 | 35839 ft | 412 kts | 265° |
| 2026-04-26 13:17 | 56.79005 | 50.42304 | 35831 ft | 412 kts | 265° |
| 2026-04-26 13:18 | 56.78279 | 50.26683 | 35818 ft | 412 kts | 265° |
| 2026-04-26 13:19 | 56.77548 | 50.11118 | 35797 ft | 412 kts | 264° |
| 2026-04-26 13:19 | 56.77045 | 50.00710 | 35804 ft | 412 kts | 264° |
| 2026-04-26 13:20 | 56.76530 | 49.90314 | 35797 ft | 412 kts | 264° |
| 2026-04-26 13:20 | 56.76015 | 49.79914 | 35798 ft | 412 kts | 265° |
| 2026-04-26 13:21 | 56.75698 | 49.69494 | 35822 ft | 412 kts | 267° |
| 2026-04-26 13:21 | 56.75491 | 49.59057 | 35812 ft | 412 kts | 267° |
| 2026-04-26 13:22 | 56.75255 | 49.48613 | 35800 ft | 412 kts | 266° |
| 2026-04-26 13:22 | 56.74969 | 49.38191 | 35779 ft | 412 kts | 266° |
| 2026-04-26 13:23 | 56.74653 | 49.27769 | 35787 ft | 412 kts | 266° |
| 2026-04-26 13:23 | 56.74336 | 49.17367 | 35790 ft | 412 kts | 266° |
| 2026-04-26 13:24 | 56.74013 | 49.06958 | 35779 ft | 411 kts | 266° |
| 2026-04-26 13:24 | 56.73691 | 48.96628 | 35778 ft | 411 kts | 266° |
| 2026-04-26 13:25 | 56.73359 | 48.86212 | 35780 ft | 411 kts | 266° |
| 2026-04-26 13:25 | 56.73017 | 48.75827 | 35770 ft | 411 kts | 265° |
| 2026-04-26 13:26 | 56.72657 | 48.65452 | 35771 ft | 410 kts | 265° |
| 2026-04-26 13:26 | 56.72291 | 48.55089 | 35767 ft | 410 kts | 265° |
| 2026-04-26 13:27 | 56.71928 | 48.44728 | 35761 ft | 409 kts | 265° |
| 2026-04-26 13:27 | 56.71559 | 48.34372 | 35748 ft | 409 kts | 265° |
| 2026-04-26 13:28 | 56.71175 | 48.24041 | 35750 ft | 409 kts | 265° |
| 2026-04-26 13:28 | 56.70782 | 48.13719 | 35737 ft | 409 kts | 264° |
| 2026-04-26 13:29 | 56.70378 | 48.03397 | 35729 ft | 409 kts | 264° |
| 2026-04-26 13:29 | 56.69971 | 47.93082 | 35703 ft | 409 kts | 264° |
| 2026-04-26 13:30 | 56.69559 | 47.82776 | 35717 ft | 408 kts | 264° |
| 2026-04-26 13:30 | 56.69141 | 47.72545 | 35742 ft | 408 kts | 264° |
| 2026-04-26 13:31 | 56.68710 | 47.62250 | 35733 ft | 408 kts | 263° |
| 2026-04-26 13:31 | 56.68264 | 47.51957 | 35724 ft | 408 kts | 263° |
| 2026-04-26 13:32 | 56.67809 | 47.41668 | 35720 ft | 408 kts | 263° |
| 2026-04-26 13:32 | 56.67314 | 47.31395 | 35699 ft | 407 kts | 259° |
| 2026-04-26 13:33 | 56.65727 | 47.21563 | 35693 ft | 405 kts | 249° |
| 2026-04-26 13:33 | 56.63792 | 47.11952 | 35681 ft | 405 kts | 249° |
| 2026-04-26 13:34 | 56.61858 | 47.02327 | 35680 ft | 405 kts | 250° |
| 2026-04-26 13:34 | 56.59930 | 46.92724 | 35681 ft | 405 kts | 249° |
| 2026-04-26 13:35 | 56.57980 | 46.83116 | 35676 ft | 405 kts | 249° |
| 2026-04-26 13:35 | 56.56027 | 46.73540 | 35674 ft | 405 kts | 249° |
| 2026-04-26 13:36 | 56.54074 | 46.64032 | 35681 ft | 405 kts | 249° |
| 2026-04-26 13:36 | 56.52106 | 46.54479 | 35684 ft | 405 kts | 249° |
| 2026-04-26 13:37 | 56.50139 | 46.44930 | 35691 ft | 404 kts | 249° |
| 2026-04-26 13:37 | 56.48162 | 46.35402 | 35683 ft | 404 kts | 248° |
| 2026-04-26 13:38 | 56.46175 | 46.25902 | 35678 ft | 404 kts | 248° |
| 2026-04-26 13:38 | 56.44179 | 46.16407 | 35666 ft | 404 kts | 248° |
| 2026-04-26 13:39 | 56.42177 | 46.06933 | 35654 ft | 403 kts | 248° |
| 2026-04-26 13:39 | 56.40172 | 45.97462 | 35653 ft | 403 kts | 248° |
| 2026-04-26 13:40 | 56.38159 | 45.88016 | 35646 ft | 403 kts | 248° |
| 2026-04-26 13:40 | 56.36142 | 45.78581 | 35643 ft | 403 kts | 248° |
| 2026-04-26 13:41 | 56.34136 | 45.69213 | 35631 ft | 403 kts | 248° |
| 2026-04-26 13:41 | 56.32099 | 45.59806 | 35631 ft | 403 kts | 248° |
| 2026-04-26 13:42 | 56.30059 | 45.50400 | 35638 ft | 403 kts | 248° |
| 2026-04-26 13:42 | 56.28019 | 45.41011 | 35639 ft | 403 kts | 247° |
| 2026-04-26 13:43 | 56.25964 | 45.31628 | 35636 ft | 403 kts | 247° |
| 2026-04-26 13:43 | 56.23919 | 45.22298 | 35629 ft | 403 kts | 247° |
| 2026-04-26 13:44 | 56.21859 | 45.12930 | 35625 ft | 403 kts | 247° |
| 2026-04-26 13:44 | 56.19795 | 45.03575 | 35623 ft | 403 kts | 247° |
| 2026-04-26 13:45 | 56.17721 | 44.94231 | 35658 ft | 403 kts | 247° |
| 2026-04-26 13:45 | 56.15648 | 44.84953 | 35644 ft | 403 kts | 246° |
| 2026-04-26 13:46 | 56.13555 | 44.75636 | 35633 ft | 403 kts | 246° |
| 2026-04-26 13:46 | 56.11548 | 44.66256 | 35624 ft | 404 kts | 253° |
| 2026-04-26 13:47 | 56.10741 | 44.56262 | 35612 ft | 407 kts | 261° |
| 2026-04-26 13:47 | 56.10153 | 44.46175 | 35608 ft | 407 kts | 261° |
| 2026-04-26 13:48 | 56.09536 | 44.36095 | 35600 ft | 407 kts | 260° |
| 2026-04-26 13:48 | 56.08914 | 44.26065 | 35591 ft | 407 kts | 260° |
| 2026-04-26 13:49 | 56.08289 | 44.15997 | 35595 ft | 407 kts | 260° |
| 2026-04-26 13:49 | 56.07654 | 44.05931 | 35574 ft | 407 kts | 260° |
| 2026-04-26 13:50 | 56.07012 | 43.95858 | 35570 ft | 407 kts | 260° |
| 2026-04-26 13:50 | 56.06363 | 43.85806 | 35587 ft | 407 kts | 259° |
| 2026-04-26 13:51 | 56.05707 | 43.75731 | 35557 ft | 407 kts | 259° |
| 2026-04-26 13:51 | 56.05041 | 43.65710 | 35556 ft | 408 kts | 259° |
| 2026-04-26 13:52 | 56.04361 | 43.55607 | 35553 ft | 409 kts | 259° |
| 2026-04-26 13:52 | 56.03672 | 43.45511 | 35552 ft | 409 kts | 259° |
| 2026-04-26 13:53 | 56.02981 | 43.35397 | 35551 ft | 410 kts | 261° |
| 2026-04-26 13:53 | 56.03010 | 43.25127 | 35547 ft | 414 kts | 267° |
| 2026-04-26 13:54 | 56.03189 | 43.14833 | 35538 ft | 414 kts | 267° |
| 2026-04-26 13:54 | 56.03358 | 43.04531 | 35549 ft | 414 kts | 267° |
| 2026-04-26 13:55 | 56.03562 | 42.90864 | 35541 ft | 415 kts | 267° |
| 2026-04-26 13:56 | 56.03797 | 42.73638 | 35528 ft | 416 kts | 267° |
| 2026-04-26 13:56 | 56.03923 | 42.63292 | 35527 ft | 416 kts | 267° |
| 2026-04-26 13:57 | 56.03633 | 42.53032 | 35512 ft | 410 kts | 255° |
| 2026-04-26 13:57 | 56.01782 | 42.43475 | 35511 ft | 407 kts | 245° |
| 2026-04-26 13:58 | 55.99998 | 42.35692 | 35517 ft | 407 kts | 246° |
| 2026-04-26 13:58 | 55.97868 | 42.26303 | 35513 ft | 408 kts | 246° |
| 2026-04-26 13:59 | 55.95370 | 42.15398 | 35532 ft | 408 kts | 246° |
| 2026-04-26 13:59 | 55.93567 | 42.07607 | 35536 ft | 409 kts | 245° |
| 2026-04-26 14:00 | 55.89213 | 41.88853 | 35509 ft | 409 kts | 245° |
| 2026-04-26 14:01 | 55.87172 | 41.79405 | 35503 ft | 411 kts | 253° |
| 2026-04-26 14:01 | 55.86521 | 41.69236 | 35502 ft | 416 kts | 263° |
| 2026-04-26 14:02 | 55.86223 | 41.58948 | 35496 ft | 416 kts | 263° |
| 2026-04-26 14:02 | 55.85905 | 41.48657 | 35494 ft | 416 kts | 263° |
| 2026-04-26 14:03 | 55.85575 | 41.38428 | 35492 ft | 416 kts | 263° |
| 2026-04-26 14:03 | 55.85232 | 41.28141 | 35481 ft | 416 kts | 263° |
| 2026-04-26 14:04 | 55.84904 | 41.17856 | 35519 ft | 416 kts | 263° |
| 2026-04-26 14:04 | 55.84562 | 41.07544 | 35491 ft | 417 kts | 262° |
| 2026-04-26 14:05 | 55.84187 | 40.97237 | 35464 ft | 418 kts | 262° |
| 2026-04-26 14:05 | 55.83806 | 40.86918 | 35459 ft | 418 kts | 262° |
| 2026-04-26 14:06 | 55.83452 | 40.76768 | 35416 ft | 407 kts | 262° |
| 2026-04-26 14:06 | 55.83268 | 40.71687 | 35003 ft | 415 kts | 262° |
| 2026-04-26 14:06 | 55.83077 | 40.66556 | 34349 ft | 415 kts | 262° |
| 2026-04-26 14:06 | 55.82885 | 40.61446 | 33722 ft | 413 kts | 261° |
| 2026-04-26 14:07 | 55.82687 | 40.56372 | 33032 ft | 410 kts | 261° |
| 2026-04-26 14:07 | 55.82482 | 40.51336 | 32290 ft | 407 kts | 260° |
| 2026-04-26 14:07 | 55.82276 | 40.46334 | 31564 ft | 404 kts | 260° |
| 2026-04-26 14:07 | 55.82070 | 40.41362 | 30863 ft | 402 kts | 260° |
| 2026-04-26 14:08 | 55.81866 | 40.36408 | 30208 ft | 400 kts | 259° |
| 2026-04-26 14:08 | 55.81662 | 40.31478 | 29539 ft | 400 kts | 259° |
| 2026-04-26 14:08 | 55.81457 | 40.26536 | 28759 ft | 401 kts | 259° |
| 2026-04-26 14:08 | 55.81254 | 40.21637 | 27996 ft | 404 kts | 259° |
| 2026-04-26 14:09 | 55.81043 | 40.16638 | 27290 ft | 407 kts | 259° |
| 2026-04-26 14:09 | 55.80823 | 40.11537 | 26960 ft | 410 kts | 259° |
| 2026-04-26 14:09 | 55.80604 | 40.06483 | 26005 ft | 411 kts | 259° |
| 2026-04-26 14:09 | 55.80390 | 40.01571 | 25749 ft | 394 kts | 259° |
| 2026-04-26 14:10 | 55.80186 | 39.96817 | 25620 ft | 377 kts | 259° |
| 2026-04-26 14:10 | 55.79987 | 39.92273 | 25489 ft | 361 kts | 258° |
| 2026-04-26 14:10 | 55.79788 | 39.87897 | 25245 ft | 349 kts | 258° |
| 2026-04-26 14:10 | 55.79590 | 39.83633 | 24988 ft | 344 kts | 258° |
| 2026-04-26 14:11 | 55.79131 | 39.75237 | 24498 ft | 340 kts | 257° |
| 2026-04-26 14:11 | 55.78847 | 39.71074 | 24242 ft | 338 kts | 256° |
| 2026-04-26 14:11 | 55.78551 | 39.66931 | 23997 ft | 338 kts | 256° |
| 2026-04-26 14:12 | 55.78257 | 39.62801 | 23752 ft | 337 kts | 256° |
| 2026-04-26 14:12 | 55.77969 | 39.58674 | 23507 ft | 337 kts | 257° |
| 2026-04-26 14:12 | 55.77685 | 39.54547 | 23314 ft | 335 kts | 257° |
| 2026-04-26 14:12 | 55.77400 | 39.50432 | 23074 ft | 334 kts | 257° |
| 2026-04-26 14:13 | 55.76833 | 39.42242 | 22521 ft | 333 kts | 257° |
| 2026-04-26 14:13 | 55.76556 | 39.38167 | 22314 ft | 332 kts | 257° |
| 2026-04-26 14:13 | 55.76279 | 39.34108 | 22130 ft | 331 kts | 257° |
| 2026-04-26 14:14 | 55.75997 | 39.30036 | 22029 ft | 331 kts | 257° |
| 2026-04-26 14:14 | 55.75713 | 39.25973 | 21918 ft | 332 kts | 257° |
| 2026-04-26 14:14 | 55.75425 | 39.21908 | 21851 ft | 331 kts | 257° |
| 2026-04-26 14:14 | 55.75137 | 39.17849 | 21793 ft | 331 kts | 257° |
| 2026-04-26 14:15 | 55.74853 | 39.13839 | 21738 ft | 331 kts | 257° |
| 2026-04-26 14:15 | 55.74557 | 39.09741 | 21680 ft | 331 kts | 257° |
| 2026-04-26 14:15 | 55.74263 | 39.05695 | 21625 ft | 330 kts | 256° |
| 2026-04-26 14:15 | 55.73972 | 39.01707 | 21574 ft | 330 kts | 256° |
| 2026-04-26 14:16 | 55.73679 | 38.97662 | 21521 ft | 330 kts | 257° |
| 2026-04-26 14:16 | 55.73432 | 38.93604 | 21467 ft | 334 kts | 262° |
| 2026-04-26 14:16 | 55.73546 | 38.89395 | 21398 ft | 339 kts | 268° |
| 2026-04-26 14:16 | 55.73762 | 38.85294 | 21138 ft | 338 kts | 268° |
| 2026-04-26 14:17 | 55.73975 | 38.81141 | 20868 ft | 337 kts | 268° |
| 2026-04-26 14:17 | 55.74181 | 38.77002 | 20647 ft | 337 kts | 268° |
| 2026-04-26 14:17 | 55.74379 | 38.72861 | 20379 ft | 337 kts | 268° |
| 2026-04-26 14:17 | 55.74576 | 38.68728 | 20118 ft | 336 kts | 268° |
| 2026-04-26 14:18 | 55.74772 | 38.64587 | 19859 ft | 336 kts | 268° |
| 2026-04-26 14:18 | 55.75038 | 38.60463 | 19643 ft | 340 kts | 274° |
| 2026-04-26 14:18 | 55.75733 | 38.56397 | 19409 ft | 349 kts | 285° |
| 2026-04-26 14:18 | 55.76917 | 38.52580 | 19407 ft | 359 kts | 297° |
| 2026-04-26 14:19 | 55.78366 | 38.48953 | 19404 ft | 360 kts | 298° |
| 2026-04-26 14:19 | 55.79812 | 38.45317 | 19405 ft | 360 kts | 297° |
| 2026-04-26 14:19 | 55.81251 | 38.41684 | 19409 ft | 355 kts | 297° |
| 2026-04-26 14:19 | 55.82646 | 38.38180 | 19406 ft | 341 kts | 297° |
| 2026-04-26 14:20 | 55.84033 | 38.34799 | 19095 ft | 337 kts | 299° |
| 2026-04-26 14:20 | 55.85453 | 38.31486 | 18780 ft | 336 kts | 300° |
| 2026-04-26 14:20 | 55.86892 | 38.28215 | 18486 ft | 335 kts | 300° |
| 2026-04-26 14:20 | 55.88335 | 38.24940 | 18141 ft | 336 kts | 300° |
| 2026-04-26 14:21 | 55.89768 | 38.21663 | 17819 ft | 336 kts | 300° |
| 2026-04-26 14:21 | 55.91202 | 38.18369 | 17466 ft | 335 kts | 300° |
| 2026-04-26 14:21 | 55.92628 | 38.15082 | 17140 ft | 334 kts | 300° |
| 2026-04-26 14:21 | 55.94044 | 38.11811 | 16825 ft | 333 kts | 300° |
| 2026-04-26 14:22 | 55.95447 | 38.08540 | 16513 ft | 331 kts | 300° |
| 2026-04-26 14:22 | 55.96842 | 38.05283 | 16198 ft | 329 kts | 300° |
| 2026-04-26 14:22 | 55.98230 | 38.02037 | 15879 ft | 328 kts | 300° |
| 2026-04-26 14:22 | 55.99545 | 37.98809 | 15579 ft | 322 kts | 294° |
| 2026-04-26 14:23 | 56.00504 | 37.95278 | 15293 ft | 312 kts | 282° |
| 2026-04-26 14:23 | 56.01034 | 37.91564 | 15123 ft | 306 kts | 273° |
| 2026-04-26 14:23 | 56.01419 | 37.87833 | 14931 ft | 305 kts | 274° |
| 2026-04-26 14:23 | 56.01814 | 37.84111 | 14743 ft | 306 kts | 276° |
| 2026-04-26 14:24 | 56.02538 | 37.80484 | 14560 ft | 314 kts | 291° |
| 2026-04-26 14:24 | 56.03799 | 37.77253 | 14351 ft | 322 kts | 307° |
| 2026-04-26 14:24 | 56.05540 | 37.74696 | 14147 ft | 329 kts | 324° |
| 2026-04-26 14:24 | 56.07612 | 37.72873 | 13928 ft | 331 kts | 331° |
| 2026-04-26 14:25 | 56.09700 | 37.71152 | 13725 ft | 330 kts | 331° |
| 2026-04-26 14:25 | 56.11836 | 37.69609 | 13513 ft | 332 kts | 341° |
| 2026-04-26 14:25 | 56.14110 | 37.68863 | 13243 ft | 335 kts | 354° |
| 2026-04-26 14:25 | 56.16451 | 37.68980 | 12818 ft | 337 kts | 4° |
| 2026-04-26 14:26 | 56.18767 | 37.69353 | 12476 ft | 334 kts | 4° |
| 2026-04-26 14:26 | 56.21080 | 37.69713 | 12122 ft | 331 kts | 4° |
| 2026-04-26 14:26 | 56.23366 | 37.70059 | 11795 ft | 329 kts | 4° |
| 2026-04-26 14:26 | 56.25639 | 37.70396 | 11500 ft | 323 kts | 4° |
| 2026-04-26 14:27 | 56.27811 | 37.70507 | 11266 ft | 305 kts | 352° |
| 2026-04-26 14:27 | 56.29814 | 37.69605 | 10932 ft | 291 kts | 333° |
| 2026-04-26 14:27 | 56.31538 | 37.67775 | 10695 ft | 285 kts | 317° |
| 2026-04-26 14:27 | 56.32883 | 37.65292 | 10447 ft | 279 kts | 305° |
| 2026-04-26 14:28 | 56.34116 | 37.62608 | 10214 ft | 278 kts | 306° |
| 2026-04-26 14:28 | 56.35351 | 37.59923 | 9962 ft | 277 kts | 306° |
| 2026-04-26 14:28 | 56.36569 | 37.57283 | 9975 ft | 270 kts | 306° |
| 2026-04-26 14:28 | 56.37737 | 37.54669 | 9981 ft | 266 kts | 301° |
| 2026-04-26 14:29 | 56.38758 | 37.51888 | 9880 ft | 265 kts | 300° |
| 2026-04-26 14:29 | 56.39559 | 37.48947 | 9771 ft | 258 kts | 279° |
| 2026-04-26 14:29 | 56.39655 | 37.45790 | 9629 ft | 250 kts | 256° |
| 2026-04-26 14:29 | 56.39061 | 37.42909 | 9516 ft | 243 kts | 233° |
| 2026-04-26 14:30 | 56.38352 | 37.41372 | 9442 ft | 239 kts | 218° |
| 2026-04-26 14:30 | 56.36467 | 37.39344 | 9270 ft | 237 kts | 204° |
| 2026-04-26 14:30 | 56.34993 | 37.38023 | 9141 ft | 237 kts | 204° |
| 2026-04-26 14:30 | 56.33516 | 37.36693 | 9002 ft | 237 kts | 205° |
| 2026-04-26 14:31 | 56.31987 | 37.35648 | 8859 ft | 235 kts | 187° |
| 2026-04-26 14:31 | 56.30372 | 37.35840 | 8722 ft | 235 kts | 162° |
| 2026-04-26 14:31 | 56.28989 | 37.37327 | 8587 ft | 238 kts | 136° |
| 2026-04-26 14:31 | 56.27941 | 37.39646 | 8443 ft | 240 kts | 129° |
| 2026-04-26 14:32 | 56.26922 | 37.42027 | 8305 ft | 240 kts | 129° |
| 2026-04-26 14:32 | 56.25897 | 37.44420 | 7908 ft | 243 kts | 129° |
| 2026-04-26 14:32 | 56.24856 | 37.46847 | 7438 ft | 247 kts | 129° |
| 2026-04-26 14:32 | 56.23813 | 37.49266 | 7178 ft | 242 kts | 129° |
| 2026-04-26 14:33 | 56.22789 | 37.51638 | 6790 ft | 240 kts | 128° |
| 2026-04-26 14:33 | 56.21763 | 37.54013 | 6263 ft | 241 kts | 128° |
| 2026-04-26 14:33 | 56.20736 | 37.56394 | 5772 ft | 241 kts | 127° |
| 2026-04-26 14:33 | 56.19699 | 37.58767 | 5277 ft | 242 kts | 131° |
| 2026-04-26 14:34 | 56.18524 | 37.60952 | 4873 ft | 241 kts | 133° |
| 2026-04-26 14:34 | 56.17357 | 37.63095 | 4746 ft | 241 kts | 133° |
| 2026-04-26 14:34 | 56.16182 | 37.65254 | 4623 ft | 241 kts | 134° |
| 2026-04-26 14:34 | 56.15015 | 37.67397 | 4491 ft | 240 kts | 133° |
| 2026-04-26 14:35 | 56.13858 | 37.69522 | 4391 ft | 241 kts | 133° |
| 2026-04-26 14:35 | 56.12693 | 37.71656 | 4290 ft | 236 kts | 133° |
| 2026-04-26 14:35 | 56.11563 | 37.73719 | 4165 ft | 227 kts | 133° |
| 2026-04-26 14:35 | 56.10466 | 37.75679 | 4064 ft | 219 kts | 139° |
| 2026-04-26 14:36 | 56.09145 | 37.76894 | 3964 ft | 212 kts | 168° |
| 2026-04-26 14:36 | 56.07694 | 37.76907 | 3823 ft | 208 kts | 195° |
| 2026-04-26 14:36 | 56.06318 | 37.76134 | 3629 ft | 207 kts | 199° |
| 2026-04-26 14:36 | 56.04951 | 37.75344 | 3456 ft | 206 kts | 199° |
| 2026-04-26 14:37 | 56.03600 | 37.74566 | 3282 ft | 200 kts | 200° |
| 2026-04-26 14:37 | 56.02397 | 37.73429 | 3123 ft | 194 kts | 224° |
| 2026-04-26 14:37 | 56.01618 | 37.71534 | 2976 ft | 188 kts | 250° |
| 2026-04-26 14:37 | 56.01238 | 37.69322 | 2840 ft | 186 kts | 259° |
| 2026-04-26 14:38 | 56.00914 | 37.67082 | 2682 ft | 186 kts | 260° |
| 2026-04-26 14:38 | 56.00589 | 37.64848 | 2535 ft | 185 kts | 260° |
| 2026-04-26 14:38 | 56.00264 | 37.62628 | 2389 ft | 185 kts | 259° |
| 2026-04-26 14:38 | 56.00051 | 37.61181 | 2290 ft | 179 kts | 259° |
| 2026-04-26 14:39 | 55.99635 | 37.58358 | 2157 ft | 174 kts | 259° |
| 2026-04-26 14:39 | 55.99334 | 37.56317 | 2006 ft | 167 kts | 260° |
| 2026-04-26 14:39 | 55.99043 | 37.54345 | 1812 ft | 160 kts | 259° |
| 2026-04-26 14:39 | 55.98775 | 37.52541 | 1611 ft | 146 kts | 259° |
| 2026-04-26 14:40 | 55.98518 | 37.50798 | 1415 ft | 141 kts | 259° |
| 2026-04-26 14:40 | 55.98271 | 37.49149 | 1228 ft | 138 kts | 258° |
| 2026-04-26 14:40 | 55.98026 | 37.47506 | 1040 ft | 136 kts | 258° |
| 2026-04-26 14:40 | 55.97789 | 37.45889 | 843 ft | 134 kts | 258° |
| 2026-04-26 14:41 | 55.97556 | 37.44288 | 672 ft | 133 kts | 258° |
| 2026-04-26 14:41 | 55.97347 | 37.42852 | 641 ft | 88 kts | 255° |
| 2026-04-26 14:41 | 55.97251 | 37.42209 | 641 ft | 40 kts | 256° |
| 2026-04-26 14:41 | 55.97185 | 37.41767 | 646 ft | 31 kts | 255° |
| 2026-04-26 14:42 | 55.97143 | 37.41481 | 648 ft | 13 kts | 255° |
| 2026-04-26 14:42 | 55.97144 | 37.41370 | 645 ft | 7 kts | 303° |
| 2026-04-26 14:42 | 55.97181 | 37.41337 | 643 ft | 5 kts | 345° |
| 2026-04-26 14:42 | 55.97202 | 37.41327 | 639 ft | 4 kts | 345° |
| 2026-04-26 14:43 | 55.97224 | 37.41317 | 639 ft | 2 kts | 345° |
| 2026-04-26 14:43 | 55.97264 | 37.41297 | 639 ft | 11 kts | 345° |
| 2026-04-26 14:43 | 55.97340 | 37.41261 | 641 ft | 11 kts | 345° |
| 2026-04-26 14:43 | 55.97420 | 37.41225 | 640 ft | 13 kts | 346° |
| 2026-04-26 14:44 | 55.97510 | 37.41182 | 639 ft | 14 kts | 345° |
| 2026-04-26 14:44 | 55.97595 | 37.41147 | 642 ft | 10 kts | 1° |
| 2026-04-26 14:44 | 55.97633 | 37.41230 | 643 ft | 8 kts | 75° |
| 2026-04-26 14:44 | 55.97645 | 37.41313 | 639 ft | 7 kts | 75° |
| 2026-04-26 14:45 | 55.97659 | 37.41407 | 640 ft | 9 kts | 75° |
| 2026-04-26 14:45 | 55.97670 | 37.41485 | 639 ft | 11 kts | 75° |
| 2026-04-26 14:45 | 55.97696 | 37.41662 | 643 ft | 10 kts | 75° |
| 2026-04-26 14:45 | 55.97711 | 37.41760 | 642 ft | 7 kts | 75° |
| 2026-04-26 14:46 | 55.97722 | 37.41823 | 645 ft | 4 kts | 60° |
| 2026-04-26 14:46 | 55.97746 | 37.41836 | 646 ft | 7 kts | 357° |
| 2026-04-26 14:46 | 55.97781 | 37.41820 | 647 ft | 2 kts | 345° |
| 2026-04-26 14:46 | 55.97788 | 37.41817 | 643 ft | 1 kts | 345° |
| 2026-04-26 14:47 | 55.97795 | 37.41814 | 643 ft | 2 kts | 346° |
| 2026-04-26 14:47 | 55.97798 | 37.41813 | 642 ft | 0 kts | 346° |
| 2026-04-26 14:50 | 55.97799 | 37.41813 | 642 ft | 0 kts | 346° |